Time;durP1;ratioP1;P1;durP2;ratioP2;P2;SDS_P1;SDS_P2;PMS_P1;PMS_P2;Temp;Humidity;BMP_temperature;BMP_pressure;BME280_temperature;BME280_humidity;BME280_pressure;Samples;Min_cycle;Max_cycle;Signal;HPM_P1;HPM_P2
2021/06/27 00:02:01;;;;;;;;;;;15.10;99.90;;;;;;5072262;28;19908;-72
2021/06/27 00:04:27;;;;;;;;;;;15.10;99.90;;;;;;5072355;28;19908;-71
2021/06/27 00:06:52;;;;;;;;;;;15.10;99.90;;;;;;5071183;28;20311;-72
2021/06/27 00:09:18;;;;;;;;;;;15.10;99.90;;;;;;5072161;28;19912;-71
2021/06/27 00:11:43;;;;;;;;;;;15.10;99.90;;;;;;5072197;28;20471;-72
2021/06/27 00:14:09;;;;;;;;;;;15.00;99.90;;;;;;5071898;28;19908;-72
2021/06/27 00:16:35;;;;;;;;;;;15.00;99.90;;;;;;5071307;28;19991;-73
2021/06/27 00:19:01;;;;;;;;;;;15.00;99.90;;;;;;5071924;28;19909;-74
2021/06/27 00:21:26;;;;;;;;;;;15.00;99.90;;;;;;5067568;28;19909;-71
2021/06/27 00:23:52;;;;;;;;;;;15.00;99.90;;;;;;5071905;28;20397;-71
2021/06/27 00:26:20;;;;;;;;;;;15.00;99.90;;;;;;5071063;28;20265;-71
2021/06/27 00:28:46;;;;;;;;;;;14.90;99.90;;;;;;5071679;28;20387;-72
2021/06/27 00:31:12;;;;;;;;;;;14.90;99.90;;;;;;5071520;28;20003;-71
2021/06/27 00:33:37;;;;;;;;;;;14.90;99.90;;;;;;5071740;28;19912;-72
2021/06/27 00:36:04;;;;;;;;;;;14.90;99.90;;;;;;5070583;28;19909;-75
2021/06/27 00:38:29;;;;;;;;;;;14.90;99.90;;;;;;5071667;28;20366;-72
2021/06/27 00:40:55;;;;;;;;;;;14.80;99.90;;;;;;5070350;28;20004;-76
2021/06/27 00:43:20;;;;;;;;;;;14.80;99.90;;;;;;5071354;28;19960;-72
2021/06/27 00:45:46;;;;;;;;;;;14.70;99.90;;;;;;5070668;28;20254;-71
2021/06/27 00:48:12;;;;;;;;;;;14.60;99.90;;;;;;5071336;28;19999;-71
2021/06/27 00:50:48;;;;;;;;;;;14.50;99.90;;;;;;5067174;28;19959;-73
2021/06/27 00:53:14;;;;;;;;;;;14.50;99.90;;;;;;5071647;28;19916;-73
2021/06/27 00:55:39;;;;;;;;;;;14.50;99.90;;;;;;5070541;28;19913;-76
2021/06/27 00:58:05;;;;;;;;;;;14.50;99.90;;;;;;5071759;28;19913;-71
2021/06/27 01:00:32;;;;;;;;;;;14.60;99.90;;;;;;5071449;28;19908;-71
2021/06/27 01:02:58;;;;;;;;;;;14.50;99.90;;;;;;5069982;28;19908;-73
2021/06/27 01:05:25;;;;;;;;;;;14.60;99.90;;;;;;5071290;28;20007;-72
2021/06/27 01:07:51;;;;;;;;;;;14.60;99.90;;;;;;5068954;28;19944;-71
2021/06/27 01:10:17;;;;;;;;;;;14.50;99.90;;;;;;5071150;28;19908;-71
2021/06/27 01:12:44;;;;;;;;;;;14.50;99.90;;;;;;5058364;28;20288;-72
2021/06/27 01:15:10;;;;;;;;;;;14.50;99.90;;;;;;5069613;28;20015;-71
2021/06/27 01:17:37;;;;;;;;;;;14.50;99.90;;;;;;5070363;28;19944;-71
2021/06/27 01:20:06;;;;;;;;;;;14.50;99.90;;;;;;5070179;28;19959;-72
2021/06/27 01:22:31;;;;;;;;;;;14.50;99.90;;;;;;5068130;28;19916;-71
2021/06/27 01:24:57;;;;;;;;;;;14.50;99.90;;;;;;5069592;28;19908;-71
2021/06/27 01:27:23;;;;;;;;;;;14.50;99.90;;;;;;5070451;28;20000;-72
2021/06/27 01:29:48;;;;;;;;;;;14.40;99.90;;;;;;5070922;28;19916;-72
2021/06/27 01:32:14;;;;;;;;;;;14.40;99.90;;;;;;5070958;28;19920;-74
2021/06/27 01:34:43;;;;;;;;;;;14.30;99.90;;;;;;5071058;28;19956;-72
2021/06/27 01:37:09;;;;;;;;;;;14.30;99.90;;;;;;5068589;28;19923;-75
2021/06/27 01:39:35;;;;;;;;;;;14.30;99.90;;;;;;5070848;28;19923;-74
2021/06/27 01:42:01;;;;;;;;;;;14.30;99.90;;;;;;5070694;28;19908;-74
2021/06/27 01:44:26;;;;;;;;;;;14.30;99.90;;;;;;5070909;28;19912;-77
2021/06/27 01:46:54;;;;;;;;;;;14.30;99.90;;;;;;5070441;28;20357;-71
2021/06/27 01:49:20;;;;;;;;;;;14.20;99.90;;;;;;5070852;28;19909;-72
2021/06/27 01:51:45;;;;;;;;;;;14.30;99.90;;;;;;5068546;28;19919;-72
2021/06/27 01:54:11;;;;;;;;;;;14.30;99.90;;;;;;5070573;28;19924;-73
2021/06/27 01:56:37;;;;;;;;;;;14.20;99.90;;;;;;5070005;28;19962;-71
2021/06/27 01:59:03;;;;;;;;;;;14.20;99.90;;;;;;5070508;28;19916;-77
2021/06/27 02:01:31;;;;;;;;;;;14.20;99.90;;;;;;5070613;28;19948;-72
2021/06/27 02:03:57;;;;;;;;;;;14.20;99.90;;;;;;5074279;28;19978;-75
2021/06/27 02:06:24;;;;;;;;;;;14.20;99.90;;;;;;5073281;28;20389;-71
2021/06/27 02:08:50;;;;;;;;;;;14.10;99.90;;;;;;5072832;28;19915;-73
2021/06/27 02:11:16;;;;;;;;;;;14.10;99.90;;;;;;5074220;28;19914;-73
2021/06/27 02:13:42;;;;;;;;;;;14.10;99.90;;;;;;5074154;28;19916;-71
2021/06/27 02:16:08;;;;;;;;;;;14.10;99.90;;;;;;5073245;28;20277;-72
2021/06/27 02:18:35;;;;;;;;;;;14.10;99.90;;;;;;5074103;28;19908;-72
2021/06/27 02:21:02;;;;;;;;;;;14.10;99.90;;;;;;5071857;28;19916;-71
2021/06/27 02:23:28;;;;;;;;;;;14.10;99.90;;;;;;5067959;28;19909;-71
2021/06/27 02:25:53;;;;;;;;;;;14.00;99.90;;;;;;5073084;28;19973;-75
2021/06/27 02:28:19;;;;;;;;;;;14.00;99.90;;;;;;5073747;28;20373;-71
2021/06/27 02:30:45;;;;;;;;;;;14.10;99.90;;;;;;5073909;28;19913;-71
2021/06/27 02:33:10;;;;;;;;;;;14.00;99.90;;;;;;5073909;28;19908;-71
2021/06/27 02:35:36;;;;;;;;;;;14.00;99.90;;;;;;5072078;28;19958;-71
2021/06/27 02:38:02;;;;;;;;;;;14.00;99.90;;;;;;5073297;28;19913;-77
2021/06/27 02:40:27;;;;;;;;;;;14.00;99.90;;;;;;5073668;28;20269;-77
2021/06/27 02:42:53;;;;;;;;;;;14.00;99.90;;;;;;5073568;28;19923;-71
2021/06/27 02:45:19;;;;;;;;;;;14.00;99.90;;;;;;5073586;28;19909;-72
2021/06/27 02:47:44;;;;;;;;;;;13.90;99.90;;;;;;5064591;28;19999;-72
2021/06/27 02:50:11;;;;;;;;;;;13.90;99.90;;;;;;5073323;28;19909;-74
2021/06/27 02:52:37;;;;;;;;;;;13.90;99.90;;;;;;5072902;28;20361;-72
2021/06/27 02:55:03;;;;;;;;;;;13.90;99.90;;;;;;5073565;28;19943;-72
2021/06/27 02:57:28;;;;;;;;;;;13.90;99.90;;;;;;5072715;28;19999;-72
2021/06/27 02:59:54;;;;;;;;;;;13.90;99.90;;;;;;5073331;28;19995;-75
2021/06/27 03:02:19;;;;;;;;;;;13.90;99.90;;;;;;5073212;28;19953;-71
2021/06/27 03:04:45;;;;;;;;;;;13.90;99.90;;;;;;5073181;28;19913;-71
2021/06/27 03:07:10;;;;;;;;;;;13.90;99.90;;;;;;5072371;28;19932;-72
2021/06/27 03:09:36;;;;;;;;;;;13.90;99.90;;;;;;5073048;28;20003;-71
2021/06/27 03:12:01;;;;;;;;;;;13.90;99.90;;;;;;5073170;28;19916;-72
2021/06/27 03:14:27;;;;;;;;;;;13.90;99.90;;;;;;5072054;28;20357;-72
2021/06/27 03:16:52;;;;;;;;;;;13.90;99.90;;;;;;5067918;28;20369;-75
2021/06/27 03:19:18;;;;;;;;;;;14.00;99.90;;;;;;5069719;28;19908;-71
2021/06/27 03:21:43;;;;;;;;;;;14.00;99.90;;;;;;5071884;28;19908;-72
2021/06/27 03:24:09;;;;;;;;;;;14.00;99.90;;;;;;5068485;28;20369;-72
2021/06/27 03:26:35;;;;;;;;;;;14.00;99.90;;;;;;5070448;28;19912;-74
2021/06/27 03:29:00;;;;;;;;;;;14.00;99.90;;;;;;5072808;28;19962;-71
2021/06/27 03:31:26;;;;;;;;;;;13.90;99.90;;;;;;5072781;28;19912;-71
2021/06/27 03:33:51;;;;;;;;;;;14.00;99.90;;;;;;5072796;28;19926;-72
2021/06/27 03:36:17;;;;;;;;;;;14.00;99.90;;;;;;5070327;28;20366;-76
2021/06/27 03:39:27;;;;;;;;;;;14.00;99.90;;;;;;5072348;28;19920;-71
2021/06/27 03:41:33;;;;;;;;;;;14.10;99.90;;;;;;5071873;28;19916;-71
2021/06/27 03:43:59;;;;;;;;;;;14.10;99.90;;;;;;5070964;28;19995;-72
2021/06/27 03:46:24;;;;;;;;;;;14.10;99.90;;;;;;5071653;28;20330;-71
2021/06/27 03:48:50;;;;;;;;;;;14.10;99.90;;;;;;5072414;28;19931;-72
2021/06/27 03:51:15;;;;;;;;;;;14.10;99.90;;;;;;5072297;28;19947;-74
2021/06/27 03:53:41;;;;;;;;;;;14.20;99.90;;;;;;5083905;28;19915;-71
2021/06/27 03:56:06;;;;;;;;;;;14.20;99.90;;;;;;5091545;28;20396;-72
2021/06/27 03:58:32;;;;;;;;;;;14.30;99.90;;;;;;5091181;28;19999;-72
2021/06/27 04:00:57;;;;;;;;;;;14.30;99.90;;;;;;5092391;28;20393;-75
2021/06/27 04:03:23;;;;;;;;;;;14.40;99.90;;;;;;5092338;28;20153;-71
2021/06/27 04:05:48;;;;;;;;;;;14.40;99.90;;;;;;5091594;28;20045;-71
2021/06/27 04:08:14;;;;;;;;;;;14.40;99.90;;;;;;5091925;28;19908;-72
2021/06/27 04:10:39;;;;;;;;;;;14.30;99.90;;;;;;5092096;28;19912;-71
2021/06/27 04:13:05;;;;;;;;;;;14.30;99.90;;;;;;5092120;28;19908;-72
2021/06/27 04:15:32;;;;;;;;;;;14.40;99.90;;;;;;5092130;28;19912;-72
2021/06/27 04:17:58;;;;;;;;;;;14.50;99.90;;;;;;5091405;28;19908;-74
2021/06/27 04:20:23;;;;;;;;;;;14.50;99.90;;;;;;5092154;28;19914;-72
2021/06/27 04:22:48;;;;;;;;;;;14.60;99.90;;;;;;5081111;28;19916;-72
2021/06/27 04:25:14;;;;;;;;;;;14.60;99.90;;;;;;5069761;28;19913;-75
2021/06/27 04:27:40;;;;;;;;;;;14.70;99.90;;;;;;5069525;28;20353;-71
2021/06/27 04:30:06;;;;;;;;;;;14.70;99.90;;;;;;5071674;28;20337;-72
2021/06/27 04:32:32;;;;;;;;;;;14.70;99.90;;;;;;5071309;28;19919;-72
2021/06/27 04:34:57;;;;;;;;;;;14.70;99.90;;;;;;5071517;28;19909;-72
2021/06/27 04:37:23;;;;;;;;;;;14.80;99.90;;;;;;5070504;28;20273;-72
2021/06/27 04:39:48;;;;;;;;;;;14.80;99.90;;;;;;5071340;28;19909;-75
2021/06/27 04:42:14;;;;;;;;;;;14.80;99.90;;;;;;5071306;28;20389;-74
2021/06/27 04:44:39;;;;;;;;;;;14.90;99.90;;;;;;5071376;28;20388;-72
2021/06/27 04:47:05;;;;;;;;;;;14.90;99.90;;;;;;5070321;28;19916;-72
2021/06/27 04:49:30;;;;;;;;;;;15.10;99.90;;;;;;5071074;28;20323;-76
2021/06/27 04:51:56;;;;;;;;;;;15.20;99.90;;;;;;5069252;28;19913;-72
2021/06/27 04:54:21;;;;;;;;;;;15.30;99.90;;;;;;5068024;28;19913;-72
2021/06/27 04:56:47;;;;;;;;;;;15.40;99.90;;;;;;5070377;28;19962;-74
2021/06/27 04:59:12;;;;;;;;;;;15.40;99.90;;;;;;5071159;28;20312;-72
2021/06/27 05:01:38;;;;;;;;;;;15.50;99.90;;;;;;5070961;28;19955;-72
2021/06/27 05:04:03;;;;;;;;;;;15.50;99.90;;;;;;5071124;28;19913;-72
2021/06/27 05:06:29;;;;;;;;;;;15.50;99.90;;;;;;5070265;28;19914;-75
2021/06/27 05:08:54;;;;;;;;;;;15.70;99.90;;;;;;5070702;28;19912;-72
2021/06/27 05:11:20;;;;;;;;;;;15.80;99.90;;;;;;5069842;28;20003;-72
2021/06/27 05:13:46;;;;;;;;;;;16.00;99.90;;;;;;5071232;28;19909;-72
2021/06/27 05:16:12;;;;;;;;;;;16.10;99.90;;;;;;5070057;28;20403;-72
2021/06/27 05:18:38;;;;;;;;;;;16.20;99.90;;;;;;5070889;28;19912;-72
2021/06/27 05:21:03;;;;;;;;;;;16.20;99.90;;;;;;5070978;28;19916;-77
2021/06/27 05:23:29;;;;;;;;;;;16.30;99.90;;;;;;5070334;28;20320;-72
2021/06/27 05:25:54;;;;;;;;;;;16.40;99.90;;;;;;5068978;28;19963;-72
2021/06/27 05:28:20;;;;;;;;;;;16.50;99.90;;;;;;5069510;28;19908;-72
2021/06/27 05:30:45;;;;;;;;;;;16.60;99.90;;;;;;5070768;28;19916;-75
2021/06/27 05:33:11;;;;;;;;;;;16.70;99.90;;;;;;5070989;28;20054;-72
2021/06/27 05:35:37;;;;;;;;;;;16.80;99.90;;;;;;5066640;28;19917;-72
2021/06/27 05:38:02;;;;;;;;;;;17.00;99.90;;;;;;5065842;28;19919;-72
2021/06/27 05:40:28;;;;;;;;;;;17.00;99.90;;;;;;5074772;28;20281;-75
2021/06/27 05:42:55;;;;;;;;;;;17.00;99.90;;;;;;5074891;28;20471;-72
2021/06/27 05:45:21;;;;;;;;;;;17.20;99.90;;;;;;5074691;28;19909;-74
2021/06/27 05:47:46;;;;;;;;;;;17.40;99.90;;;;;;5073650;28;19909;-72
2021/06/27 05:50:13;;;;;;;;;;;17.50;99.90;;;;;;5074761;28;19919;-77
2021/06/27 05:52:38;;;;;;;;;;;17.50;99.90;;;;;;5074642;28;20388;-73
2021/06/27 05:55:04;;;;;;;;;;;17.70;99.90;;;;;;5074617;28;19912;-72
2021/06/27 05:57:30;;;;;;;;;;;17.80;99.90;;;;;;5073969;28;20432;-72
2021/06/27 05:59:55;;;;;;;;;;;18.20;99.90;;;;;;5073101;28;20026;-75
2021/06/27 06:02:21;;;;;;;;;;;18.40;99.90;;;;;;5074530;28;20346;-73
2021/06/27 06:04:46;;;;;;;;;;;18.60;99.90;;;;;;5074416;28;19910;-77
2021/06/27 06:07:11;;;;;;;;;;;18.90;99.90;;;;;;5065479;28;19923;-72
2021/06/27 06:09:37;;;;;;;;;;;19.10;99.90;;;;;;5074173;28;19908;-72
2021/06/27 06:12:03;;;;;;;;;;;19.50;99.90;;;;;;5074602;28;20365;-74
2021/06/27 06:14:28;;;;;;;;;;;19.90;99.90;;;;;;5074244;28;19916;-72
2021/06/27 06:16:54;;;;;;;;;;;20.20;99.90;;;;;;5073359;28;20464;-70
2021/06/27 06:19:20;;;;;;;;;;;20.70;99.90;;;;;;5074253;28;20262;-70
2021/06/27 06:21:46;;;;;;;;;;;21.10;99.90;;;;;;5074083;28;19909;-70
2021/06/27 06:24:12;;;;;;;;;;;21.40;99.90;;;;;;5073720;28;19924;-70
2021/06/27 06:26:37;;;;;;;;;;;21.60;99.90;;;;;;5073217;28;19909;-70
2021/06/27 06:29:04;;;;;;;;;;;21.80;99.90;;;;;;5073929;28;19908;-73
2021/06/27 06:31:29;;;;;;;;;;;22.10;99.90;;;;;;5073892;28;19995;-70
2021/06/27 06:33:55;;;;;;;;;;;22.40;99.90;;;;;;5073947;28;19923;-75
2021/06/27 06:36:20;;;;;;;;;;;23.00;99.90;;;;;;5064960;28;19935;-69
2021/06/27 06:38:46;;;;;;;;;;;23.30;99.90;;;;;;5073495;28;19978;-70
2021/06/27 06:41:11;;;;;;;;;;;23.50;99.90;;;;;;5073813;28;19908;-71
2021/06/27 06:43:37;;;;;;;;;;;23.60;99.90;;;;;;5073498;28;19917;-70
2021/06/27 06:46:02;;;;;;;;;;;23.60;99.90;;;;;;5072876;28;19908;-70
2021/06/27 06:48:28;;;;;;;;;;;23.80;99.90;;;;;;5073463;28;20478;-70
2021/06/27 06:50:53;;;;;;;;;;;24.10;99.90;;;;;;5073589;28;19920;-74
2021/06/27 06:53:19;;;;;;;;;;;24.60;99.90;;;;;;5073106;28;19909;-70
2021/06/27 06:55:44;;;;;;;;;;;25.10;99.90;;;;;;5071426;28;19908;-70
2021/06/27 06:58:10;;;;;;;;;;;25.50;99.90;;;;;;5073230;28;19927;-71
2021/06/27 07:00:35;;;;;;;;;;;25.70;99.90;;;;;;5073338;28;19916;-70
2021/06/27 07:03:01;;;;;;;;;;;26.10;99.90;;;;;;5073495;28;19909;-70
2021/06/27 07:05:26;;;;;;;;;;;26.70;99.90;;;;;;5070335;28;19913;-71
2021/06/27 07:07:52;;;;;;;;;;;27.00;99.90;;;;;;5091140;28;19912;-75
2021/06/27 07:10:17;;;;;;;;;;;27.30;99.90;;;;;;5093390;28;19915;-70
2021/06/27 07:12:43;;;;;;;;;;;27.60;99.90;;;;;;5093415;28;19954;-70
2021/06/27 07:15:09;;;;;;;;;;;27.90;99.90;;;;;;5093755;28;20246;-70
2021/06/27 07:17:35;;;;;;;;;;;28.30;99.90;;;;;;5073132;28;19920;-70
2021/06/27 07:20:00;;;;;;;;;;;28.60;99.90;;;;;;5061793;28;20427;-71
2021/06/27 07:22:26;;;;;;;;;;;29.00;99.60;;;;;;5055527;28;19908;-73
2021/06/27 07:24:51;;;;;;;;;;;29.10;98.20;;;;;;5053133;28;19908;-70
2021/06/27 07:27:17;;;;;;;;;;;29.20;98.20;;;;;;5052397;28;19908;-70
2021/06/27 07:29:42;;;;;;;;;;;29.20;97.50;;;;;;5052701;28;19966;-73
2021/06/27 07:32:08;;;;;;;;;;;29.00;98.70;;;;;;5052891;28;19912;-70
2021/06/27 07:34:33;;;;;;;;;;;29.00;98.10;;;;;;5052775;28;19909;-70
2021/06/27 07:37:00;;;;;;;;;;;29.00;97.50;;;;;;5057718;28;19998;-71
2021/06/27 07:39:25;;;;;;;;;;;29.10;97.50;;;;;;5070930;28;20011;-71
2021/06/27 07:41:51;;;;;;;;;;;29.20;96.70;;;;;;5072536;28;19943;-72
2021/06/27 07:44:16;;;;;;;;;;;29.30;95.90;;;;;;5072513;28;19916;-70
2021/06/27 07:46:42;;;;;;;;;;;29.60;97.50;;;;;;5071629;28;19958;-71
2021/06/27 07:49:07;;;;;;;;;;;29.80;96.50;;;;;;5072390;28;20289;-70
2021/06/27 07:51:33;;;;;;;;;;;29.80;96.00;;;;;;5072255;28;19958;-71
2021/06/27 07:53:58;;;;;;;;;;;29.80;96.10;;;;;;5072207;28;19908;-71
2021/06/27 07:56:24;;;;;;;;;;;29.90;94.40;;;;;;5072017;28;19950;-71
2021/06/27 07:58:50;;;;;;;;;;;30.10;94.30;;;;;;5070724;28;19916;-71
2021/06/27 08:01:15;;;;;;;;;;;30.00;96.00;;;;;;5071900;28;19917;-72
2021/06/27 08:03:41;;;;;;;;;;;30.00;96.20;;;;;;5072168;28;19908;-71
2021/06/27 08:06:06;;;;;;;;;;;30.00;93.60;;;;;;5064398;28;19908;-71
2021/06/27 08:08:32;;;;;;;;;;;29.90;93.90;;;;;;5070367;28;20007;-71
2021/06/27 08:10:57;;;;;;;;;;;30.00;94.80;;;;;;5071792;28;19912;-74
2021/06/27 08:13:22;;;;;;;;;;;30.30;95.30;;;;;;5071841;28;20452;-71
2021/06/27 08:15:48;;;;;;;;;;;30.40;94.80;;;;;;5071430;28;19913;-71
2021/06/27 08:18:14;;;;;;;;;;;30.40;94.20;;;;;;5071920;28;20369;-72
2021/06/27 08:20:39;;;;;;;;;;;30.50;93.70;;;;;;5071877;28;20274;-75
2021/06/27 08:23:05;;;;;;;;;;;30.60;95.90;;;;;;5066146;28;19934;-72
2021/06/27 08:25:30;;;;;;;;;;;30.80;93.20;;;;;;5071444;28;20506;-73
2021/06/27 08:27:56;;;;;;;;;;;30.90;92.60;;;;;;5070926;28;19913;-72
2021/06/27 08:30:23;;;;;;;;;;;30.60;91.30;;;;;;5071786;28;19980;-71
2021/06/27 08:32:49;;;;;;;;;;;30.30;92.20;;;;;;5071680;28;19931;-71
2021/06/27 08:35:16;;;;;;;;;;;30.20;94.90;;;;;;5070079;28;19908;-71
2021/06/27 08:37:42;;;;;;;;;;;30.50;93.40;;;;;;5069191;28;19953;-75
2021/06/27 08:40:08;;;;;;;;;;;30.80;95.30;;;;;;5071645;28;19999;-71
2021/06/27 08:42:34;;;;;;;;;;;31.00;93.70;;;;;;5071245;28;20504;-71
2021/06/27 08:44:59;;;;;;;;;;;31.20;93.00;;;;;;5071405;28;19995;-71
2021/06/27 08:47:25;;;;;;;;;;;31.40;91.50;;;;;;5069418;28;19908;-72
2021/06/27 08:49:51;;;;;;;;;;;31.40;93.90;;;;;;5071240;28;19915;-71
2021/06/27 08:52:18;;;;;;;;;;;31.40;91.20;;;;;;5065302;28;19928;-72
2021/06/27 08:54:44;;;;;;;;;;;31.20;91.40;;;;;;5071080;28;19908;-71
2021/06/27 08:57:11;;;;;;;;;;;31.20;90.60;;;;;;5066163;28;19912;-71
2021/06/27 08:59:36;;;;;;;;;;;31.10;94.40;;;;;;5070423;28;19961;-74
2021/06/27 09:02:02;;;;;;;;;;;31.20;87.10;;;;;;5071346;28;19991;-73
2021/06/27 09:04:28;;;;;;;;;;;30.90;90.80;;;;;;5071209;28;19944;-74
2021/06/27 09:06:53;;;;;;;;;;;30.60;87.80;;;;;;5069934;28;19909;-73
2021/06/27 09:09:20;;;;;;;;;;;30.40;91.10;;;;;;5067442;28;20356;-74
2021/06/27 09:12:05;;;;;;;;;;;30.40;88.70;;;;;;5069964;28;20296;-74
2021/06/27 09:14:30;;;;;;;;;;;30.30;90.40;;;;;;5067004;28;19908;-73
2021/06/27 09:17:08;;;;;;;;;;;30.20;90.00;;;;;;5070068;28;19954;-74
2021/06/27 09:19:52;;;;;;;;;;;30.20;90.70;;;;;;5070832;28;19952;-73
2021/06/27 09:22:18;;;;;;;;;;;30.50;92.60;;;;;;5065446;28;19924;-74
2021/06/27 09:24:45;;;;;;;;;;;30.70;90.80;;;;;;5070628;28;19916;-73
2021/06/27 09:27:15;;;;;;;;;;;31.00;92.50;;;;;;5070234;28;19909;-75
2021/06/27 09:29:41;;;;;;;;;;;31.10;87.40;;;;;;5070826;28;19916;-74
2021/06/27 09:32:19;;;;;;;;;;;31.30;95.20;;;;;;5068628;28;19983;-73
2021/06/27 09:34:45;;;;;;;;;;;31.30;85.40;;;;;;5069132;28;20686;-73
2021/06/27 09:37:13;;;;;;;;;;;31.20;91.50;;;;;;5065400;28;19909;-73
2021/06/27 09:39:55;;;;;;;;;;;31.40;90.50;;;;;;5067549;28;19915;-73
2021/06/27 09:42:20;;;;;;;;;;;31.30;86.60;;;;;;5067486;28;20289;-73
2021/06/27 09:44:58;;;;;;;;;;;31.20;91.90;;;;;;5066586;28;19916;-73
2021/06/27 09:47:24;;;;;;;;;;;31.40;91.20;;;;;;5066456;28;20315;-73
2021/06/27 09:49:49;;;;;;;;;;;31.60;84.70;;;;;;5069090;28;19908;-75
2021/06/27 09:52:15;;;;;;;;;;;31.70;87.00;;;;;;5069224;28;19919;-73
2021/06/27 09:54:41;;;;;;;;;;;31.80;89.20;;;;;;5070461;28;20354;-73
2021/06/27 09:57:07;;;;;;;;;;;32.10;83.60;;;;;;5069747;28;19954;-73
2021/06/27 09:59:34;;;;;;;;;;;32.00;80.90;;;;;;5070467;28;20281;-73
2021/06/27 10:01:59;;;;;;;;;;;32.10;87.70;;;;;;5070450;28;19908;-73
2021/06/27 10:04:27;;;;;;;;;;;32.10;87.20;;;;;;5070571;28;20460;-73
2021/06/27 10:06:55;;;;;;;;;;;32.30;83.50;;;;;;5064997;28;20007;-73
2021/06/27 10:09:22;;;;;;;;;;;32.00;79.50;;;;;;5070350;28;19923;-73
2021/06/27 10:12:08;;;;;;;;;;;31.60;78.20;;;;;;5070417;28;19912;-73
2021/06/27 10:14:35;;;;;;;;;;;31.50;88.50;;;;;;5070301;28;19908;-73
2021/06/27 10:17:02;;;;;;;;;;;31.50;84.10;;;;;;5069617;28;19916;-74
2021/06/27 10:19:27;;;;;;;;;;;31.60;85.30;;;;;;5070457;28;19916;-73
2021/06/27 10:21:53;;;;;;;;;;;32.00;87.80;;;;;;5070282;28;19912;-73
2021/06/27 10:24:20;;;;;;;;;;;32.30;88.40;;;;;;5071358;28;19993;-74
2021/06/27 10:26:45;;;;;;;;;;;33.00;82.90;;;;;;5073035;28;19913;-73
2021/06/27 10:29:12;;;;;;;;;;;32.90;80.80;;;;;;5073899;28;19916;-74
2021/06/27 10:31:37;;;;;;;;;;;33.00;83.40;;;;;;5073860;28;19913;-73
2021/06/27 10:34:03;;;;;;;;;;;33.20;78.90;;;;;;5074064;28;19915;-73
2021/06/27 10:36:30;;;;;;;;;;;33.20;74.40;;;;;;5068137;28;19915;-74
2021/06/27 10:38:56;;;;;;;;;;;33.00;79.70;;;;;;5073440;28;19912;-73
2021/06/27 10:41:42;;;;;;;;;;;32.80;77.40;;;;;;5073649;28;19915;-73
2021/06/27 10:44:07;;;;;;;;;;;32.70;85.10;;;;;;5072078;28;19917;-73
2021/06/27 10:46:36;;;;;;;;;;;32.50;75.00;;;;;;5072656;28;19909;-73
2021/06/27 10:49:03;;;;;;;;;;;32.50;73.80;;;;;;5073218;28;19954;-73
2021/06/27 10:51:56;;;;;;;;;;;32.60;78.40;;;;;;5071798;28;19958;-73
2021/06/27 10:54:22;;;;;;;;;;;32.90;83.40;;;;;;5070572;28;20377;-73
2021/06/27 10:56:51;;;;;;;;;;;33.00;73.10;;;;;;5072688;28;19946;-73
2021/06/27 10:59:48;;;;;;;;;;;32.80;77.50;;;;;;5073354;28;19909;-75
2021/06/27 11:02:17;;;;;;;;;;;32.90;74.00;;;;;;5072934;28;19916;-74
2021/06/27 11:04:46;;;;;;;;;;;32.70;81.80;;;;;;5073312;28;19935;-73
2021/06/27 11:07:30;;;;;;;;;;;32.70;81.50;;;;;;5072186;28;20479;-73
2021/06/27 11:10:14;;;;;;;;;;;32.50;70.80;;;;;;5073146;28;19912;-73
2021/06/27 11:12:55;;;;;;;;;;;32.30;75.40;;;;;;5073014;28;19963;-73
2021/06/27 11:15:21;;;;;;;;;;;32.50;76.40;;;;;;5073081;28;19916;-73
2021/06/27 11:17:53;;;;;;;;;;;32.60;74.40;;;;;;5072307;28;19908;-73
2021/06/27 11:20:19;;;;;;;;;;;33.00;75.10;;;;;;5071704;28;19915;-73
2021/06/27 11:22:45;;;;;;;;;;;33.10;69.70;;;;;;5065336;28;19912;-73
2021/06/27 11:25:31;;;;;;;;;;;33.00;77.20;;;;;;5067854;28;20408;-73
2021/06/27 11:27:56;;;;;;;;;;;33.00;70.30;;;;;;5065709;28;19905;-73
2021/06/27 11:30:25;;;;;;;;;;;33.30;74.70;;;;;;5072970;28;20408;-74
2021/06/27 11:32:51;;;;;;;;;;;33.50;68.00;;;;;;5072734;28;20274;-73
2021/06/27 11:35:36;;;;;;;;;;;33.60;67.90;;;;;;5070561;28;19957;-73
2021/06/27 11:38:03;;;;;;;;;;;33.60;70.00;;;;;;5070354;28;19932;-74
2021/06/27 11:40:42;;;;;;;;;;;33.50;67.80;;;;;;5072630;28;19954;-73
2021/06/27 11:43:08;;;;;;;;;;;33.30;68.10;;;;;;5072449;28;20027;-73
2021/06/27 11:45:33;;;;;;;;;;;33.00;68.40;;;;;;5072598;28;19995;-73
2021/06/27 11:48:00;;;;;;;;;;;32.90;72.90;;;;;;5071661;28;19966;-73
2021/06/27 11:50:36;;;;;;;;;;;32.80;71.50;;;;;;5071223;28;19959;-73
2021/06/27 11:53:03;;;;;;;;;;;32.90;69.10;;;;;;5072058;28;20419;-73
2021/06/27 11:55:36;;;;;;;;;;;32.90;66.30;;;;;;5067978;28;19909;-73
2021/06/27 11:58:02;;;;;;;;;;;33.10;70.40;;;;;;5071740;28;19951;-73
2021/06/27 12:00:32;;;;;;;;;;;33.30;69.40;;;;;;5072499;28;19912;-73
2021/06/27 12:03:08;;;;;;;;;;;33.70;65.30;;;;;;5072101;28;19912;-73
2021/06/27 12:05:34;;;;;;;;;;;33.80;63.70;;;;;;5071807;28;19912;-73
2021/06/27 12:08:02;;;;;;;;;;;33.70;63.20;;;;;;5071455;28;20084;-73
2021/06/27 12:10:28;;;;;;;;;;;33.60;64.60;;;;;;5072138;28;20285;-73
2021/06/27 12:12:56;;;;;;;;;;;33.60;67.40;;;;;;5070569;28;19919;-73
2021/06/27 12:15:22;;;;;;;;;;;33.60;63.90;;;;;;5071757;28;19908;-73
2021/06/27 12:18:02;;;;;;;;;;;33.70;60.60;;;;;;5071220;28;19909;-73
2021/06/27 12:20:29;;;;;;;;;;;33.80;67.20;;;;;;5071869;28;19908;-73
2021/06/27 12:22:56;;;;;;;;;;;33.70;65.60;;;;;;5071496;28;20549;-73
2021/06/27 12:25:25;;;;;;;;;;;33.60;61.30;;;;;;5066192;28;20008;-73
2021/06/27 12:27:51;;;;;;;;;;;33.60;61.50;;;;;;5070707;28;19962;-73
2021/06/27 12:30:18;;;;;;;;;;;33.50;65.00;;;;;;5071536;28;19908;-75
2021/06/27 12:33:02;;;;;;;;;;;33.10;61.90;;;;;;5071574;28;19912;-74
2021/06/27 12:35:32;;;;;;;;;;;33.10;68.60;;;;;;5071340;28;19952;-73
2021/06/27 12:37:58;;;;;;;;;;;33.00;65.50;;;;;;5069335;28;19909;-75
2021/06/27 12:40:24;;;;;;;;;;;33.00;63.40;;;;;;5071567;28;19944;-74
2021/06/27 12:42:49;;;;;;;;;;;33.10;61.80;;;;;;5070115;28;20052;-73
2021/06/27 12:45:19;;;;;;;;;;;33.00;65.30;;;;;;5071544;28;20011;-73
2021/06/27 12:47:45;;;;;;;;;;;33.20;63.20;;;;;;5070521;28;20345;-73
2021/06/27 12:50:11;;;;;;;;;;;33.40;62.50;;;;;;5071381;28;19909;-73
2021/06/27 12:52:36;;;;;;;;;;;33.40;65.10;;;;;;5070908;28;19920;-73
2021/06/27 12:55:09;;;;;;;;;;;33.60;64.30;;;;;;5068667;28;19919;-73
2021/06/27 12:57:34;;;;;;;;;;;33.70;62.80;;;;;;5069287;28;20012;-73
2021/06/27 13:00:00;;;;;;;;;;;33.90;67.00;;;;;;5071166;28;19981;-75
2021/06/27 13:02:34;;;;;;;;;;;33.90;64.90;;;;;;5071238;28;19908;-73
2021/06/27 13:05:10;;;;;;;;;;;34.10;63.70;;;;;;5071041;28;19916;-74
2021/06/27 13:07:41;;;;;;;;;;;34.40;69.20;;;;;;5070087;28;19951;-73
2021/06/27 13:10:12;;;;;;;;;;;34.40;63.40;;;;;;5071051;28;19909;-73
2021/06/27 13:12:46;;;;;;;;;;;34.40;61.50;;;;;;5071028;28;19912;-72
2021/06/27 13:15:19;;;;;;;;;;;34.30;62.10;;;;;;5070935;28;20068;-73
2021/06/27 13:17:48;;;;;;;;;;;33.80;63.90;;;;;;5070254;28;19915;-73
2021/06/27 13:20:15;;;;;;;;;;;33.60;62.60;;;;;;5070992;28;20277;-73
2021/06/27 13:22:55;;;;;;;;;;;33.50;63.20;;;;;;5070776;28;19958;-75
2021/06/27 13:25:40;;;;;;;;;;;33.60;64.60;;;;;;5065898;28;20282;-73
2021/06/27 13:28:10;;;;;;;;;;;33.70;62.10;;;;;;5070989;28;19909;-73
2021/06/27 13:30:44;;;;;;;;;;;33.30;63.30;;;;;;5070994;28;20396;-73
2021/06/27 13:33:10;;;;;;;;;;;32.90;63.60;;;;;;5070979;28;19935;-72
2021/06/27 13:35:37;;;;;;;;;;;32.30;65.70;;;;;;5069018;28;19912;-73
2021/06/27 13:38:05;;;;;;;;;;;32.10;72.20;;;;;;5070290;28;19920;-75
2021/06/27 13:40:31;;;;;;;;;;;32.00;65.50;;;;;;5070730;28;19908;-73
2021/06/27 13:42:56;;;;;;;;;;;31.70;68.60;;;;;;5070586;28;20483;-72
2021/06/27 13:45:22;;;;;;;;;;;31.20;65.60;;;;;;5070675;28;19995;-73
2021/06/27 13:47:52;;;;;;;;;;;30.70;64.80;;;;;;5069925;28;19915;-73
2021/06/27 13:50:18;;;;;;;;;;;30.50;66.20;;;;;;5070692;28;19927;-73
2021/06/27 13:52:44;;;;;;;;;;;30.70;72.90;;;;;;5070479;28;19913;-73
2021/06/27 13:55:10;;;;;;;;;;;30.70;73.20;;;;;;5067062;28;19913;-73
2021/06/27 13:57:35;;;;;;;;;;;30.90;74.50;;;;;;5068948;28;19916;-73
2021/06/27 14:00:03;;;;;;;;;;;31.30;72.20;;;;;;5074495;28;20365;-72
2021/06/27 14:02:28;;;;;;;;;;;31.80;74.40;;;;;;5074496;28;19998;-73
2021/06/27 14:04:54;;;;;;;;;;;32.30;71.80;;;;;;5074502;28;20000;-73
2021/06/27 14:07:19;;;;;;;;;;;32.70;70.30;;;;;;5073371;28;19923;-74
2021/06/27 14:09:45;;;;;;;;;;;32.90;68.30;;;;;;5073966;28;20343;-73
2021/06/27 14:12:10;;;;;;;;;;;33.00;66.20;;;;;;5072845;28;19912;-76
2021/06/27 14:14:36;;;;;;;;;;;33.00;65.40;;;;;;5074349;28;19908;-73
2021/06/27 14:17:02;;;;;;;;;;;32.80;65.20;;;;;;5073406;28;19966;-74